sensor_id;sensor_type;location;lat;lon;timestamp;P1;P2;P0
33948;PMS7003;20229;49.856;19.030;2023-04-24T00:04:36;173;170;163
33948;PMS7003;20229;49.856;19.030;2023-04-24T00:09:53;201;197;191
33948;PMS7003;20229;49.856;19.030;2023-04-24T00:15:08;198;194;188
33948;PMS7003;20229;49.856;19.030;2023-04-24T00:20:23;223;218;213
33948;PMS7003;20229;49.856;19.030;2023-04-24T00:25:37;232;228;221
33948;PMS7003;20229;49.856;19.030;2023-04-24T00:30:51;230;228;222
33948;PMS7003;20229;49.856;19.030;2023-04-24T00:36:05;181;179;176
33948;PMS7003;20229;49.856;19.030;2023-04-24T00:41:19;156;154;149
33948;PMS7003;20229;49.856;19.030;2023-04-24T00:46:34;165;163;158
33948;PMS7003;20229;49.856;19.030;2023-04-24T00:51:49;201;197;193
33948;PMS7003;20229;49.856;19.030;2023-04-24T00:57:04;191;188;183
33948;PMS7003;20229;49.856;19.030;2023-04-24T01:02:18;137;133;128
33948;PMS7003;20229;49.856;19.030;2023-04-24T01:07:34;165;161;156
33948;PMS7003;20229;49.856;19.030;2023-04-24T01:12:49;179;175;170
33948;PMS7003;20229;49.856;19.030;2023-04-24T01:18:03;142;138;133
33948;PMS7003;20229;49.856;19.030;2023-04-24T01:23:19;121;116;112
33948;PMS7003;20229;49.856;19.030;2023-04-24T01:28:33;136;132;129
33948;PMS7003;20229;49.856;19.030;2023-04-24T01:33:47;181;179;174
33948;PMS7003;20229;49.856;19.030;2023-04-24T01:39:01;188;186;181
33948;PMS7003;20229;49.856;19.030;2023-04-24T01:44:16;141;137;132
33948;PMS7003;20229;49.856;19.030;2023-04-24T01:49:31;135;128;123
33948;PMS7003;20229;49.856;19.030;2023-04-24T01:54:46;112;104;98
33948;PMS7003;20229;49.856;19.030;2023-04-24T01:59:59;109;100;93
33948;PMS7003;20229;49.856;19.030;2023-04-24T02:05:13;99;90;82
33948;PMS7003;20229;49.856;19.030;2023-04-24T02:10:27;112;104;98
33948;PMS7003;20229;49.856;19.030;2023-04-24T02:15:41;92;84;78
33948;PMS7003;20229;49.856;19.030;2023-04-24T02:20:54;102;94;87
33948;PMS7003;20229;49.856;19.030;2023-04-24T02:26:09;102;95;89
33948;PMS7003;20229;49.856;19.030;2023-04-24T02:31:24;131;125;119
33948;PMS7003;20229;49.856;19.030;2023-04-24T02:36:37;140;137;132
33948;PMS7003;20229;49.856;19.030;2023-04-24T02:41:51;123;117;113
33948;PMS7003;20229;49.856;19.030;2023-04-24T02:47:05;169;166;162
33948;PMS7003;20229;49.856;19.030;2023-04-24T02:52:19;205;202;198
33948;PMS7003;20229;49.856;19.030;2023-04-24T02:57:34;199;195;191
33948;PMS7003;20229;49.856;19.030;2023-04-24T03:02:48;225;221;217
33948;PMS7003;20229;49.856;19.030;2023-04-24T03:08:03;251;248;244
33948;PMS7003;20229;49.856;19.030;2023-04-24T03:13:17;310;308;303
33948;PMS7003;20229;49.856;19.030;2023-04-24T03:18:32;309;307;304
33948;PMS7003;20229;49.856;19.030;2023-04-24T03:23:46;311;309;305
33948;PMS7003;20229;49.856;19.030;2023-04-24T03:29:01;344;341;337
33948;PMS7003;20229;49.856;19.030;2023-04-24T03:34:15;350;348;345
33948;PMS7003;20229;49.856;19.030;2023-04-24T03:39:29;399;396;393
33948;PMS7003;20229;49.856;19.030;2023-04-24T03:44:42;421;417;415
33948;PMS7003;20229;49.856;19.030;2023-04-24T03:49:56;320;318;315
33948;PMS7003;20229;49.856;19.030;2023-04-24T03:55:10;188;187;184
33948;PMS7003;20229;49.856;19.030;2023-04-24T04:00:26;72;68;61
33948;PMS7003;20229;49.856;19.030;2023-04-24T04:05:41;54;52;47
33948;PMS7003;20229;49.856;19.030;2023-04-24T04:10:54;51;45;38
33948;PMS7003;20229;49.856;19.030;2023-04-24T04:16:08;71;61;52
33948;PMS7003;20229;49.856;19.030;2023-04-24T04:21:22;76;64;60
33948;PMS7003;20229;49.856;19.030;2023-04-24T04:26:36;67;56;47
33948;PMS7003;20229;49.856;19.030;2023-04-24T04:31:51;75;63;59
33948;PMS7003;20229;49.856;19.030;2023-04-24T04:37:05;76;65;61
33948;PMS7003;20229;49.856;19.030;2023-04-24T04:42:20;74;61;56
33948;PMS7003;20229;49.856;19.030;2023-04-24T04:47:34;67;56;46
33948;PMS7003;20229;49.856;19.030;2023-04-24T04:52:47;70;59;50
33948;PMS7003;20229;49.856;19.030;2023-04-24T04:58:01;69;57;49
33948;PMS7003;20229;49.856;19.030;2023-04-24T05:03:15;64;55;47
33948;PMS7003;20229;49.856;19.030;2023-04-24T05:08:35;65;55;46
33948;PMS7003;20229;49.856;19.030;2023-04-24T05:13:48;75;65;60
33948;PMS7003;20229;49.856;19.030;2023-04-24T05:19:02;78;65;63
33948;PMS7003;20229;49.856;19.030;2023-04-24T05:24:16;81;71;69
33948;PMS7003;20229;49.856;19.030;2023-04-24T05:29:31;80;70;67
33948;PMS7003;20229;49.856;19.030;2023-04-24T05:34:49;78;68;65
33948;PMS7003;20229;49.856;19.030;2023-04-24T05:40:04;78;69;65
33948;PMS7003;20229;49.856;19.030;2023-04-24T05:45:18;80;71;68
33948;PMS7003;20229;49.856;19.030;2023-04-24T05:50:32;81;72;69
33948;PMS7003;20229;49.856;19.030;2023-04-24T05:55:46;75;67;63
33948;PMS7003;20229;49.856;19.030;2023-04-24T06:01:00;76;65;62
33948;PMS7003;20229;49.856;19.030;2023-04-24T06:06:16;88;84;79
33948;PMS7003;20229;49.856;19.030;2023-04-24T06:11:30;78;71;68
33948;PMS7003;20229;49.856;19.030;2023-04-24T06:16:44;89;88;84
33948;PMS7003;20229;49.856;19.030;2023-04-24T06:21:58;76;73;70
33948;PMS7003;20229;49.856;19.030;2023-04-24T06:27:12;89;86;83
33948;PMS7003;20229;49.856;19.030;2023-04-24T06:32:26;82;80;76
33948;PMS7003;20229;49.856;19.030;2023-04-24T06:37:42;173;171;157
33948;PMS7003;20229;49.856;19.030;2023-04-24T06:42:56;74;68;65
33948;PMS7003;20229;49.856;19.030;2023-04-24T06:48:13;64;53;50
33948;PMS7003;20229;49.856;19.030;2023-04-24T06:53:26;67;57;54
33948;PMS7003;20229;49.856;19.030;2023-04-24T06:58:40;63;53;49
33948;PMS7003;20229;49.856;19.030;2023-04-24T07:03:55;61;52;46
33948;PMS7003;20229;49.856;19.030;2023-04-24T07:09:09;65;58;50
33948;PMS7003;20229;49.856;19.030;2023-04-24T07:14:23;64;57;50
33948;PMS7003;20229;49.856;19.030;2023-04-24T07:19:37;59;49;42
33948;PMS7003;20229;49.856;19.030;2023-04-24T07:24:51;56;47;41
33948;PMS7003;20229;49.856;19.030;2023-04-24T07:30:05;54;46;38
33948;PMS7003;20229;49.856;19.030;2023-04-24T07:35:20;51;43;35
33948;PMS7003;20229;49.856;19.030;2023-04-24T07:40:35;64;55;52
33948;PMS7003;20229;49.856;19.030;2023-04-24T07:45:49;70;63;61
33948;PMS7003;20229;49.856;19.030;2023-04-24T07:51:03;66;58;55
33948;PMS7003;20229;49.856;19.030;2023-04-24T07:56:17;71;65;63
33948;PMS7003;20229;49.856;19.030;2023-04-24T08:01:32;67;57;54
33948;PMS7003;20229;49.856;19.030;2023-04-24T08:06:47;87;83;82
33948;PMS7003;20229;49.856;19.030;2023-04-24T08:12:02;64;55;52
33948;PMS7003;20229;49.856;19.030;2023-04-24T08:17:16;56;47;42
33948;PMS7003;20229;49.856;19.030;2023-04-24T08:22:30;47;42;34
33948;PMS7003;20229;49.856;19.030;2023-04-24T08:27:44;45;39;32
33948;PMS7003;20229;49.856;19.030;2023-04-24T08:32:58;45;40;33
33948;PMS7003;20229;49.856;19.030;2023-04-24T08:38:11;44;38;32
33948;PMS7003;20229;49.856;19.030;2023-04-24T08:43:27;46;40;33
33948;PMS7003;20229;49.856;19.030;2023-04-24T08:48:41;49;41;34
33948;PMS7003;20229;49.856;19.030;2023-04-24T08:53:55;49;41;34
33948;PMS7003;20229;49.856;19.030;2023-04-24T08:59:11;49;42;35
33948;PMS7003;20229;49.856;19.030;2023-04-24T09:04:25;51;43;36
33948;PMS7003;20229;49.856;19.030;2023-04-24T09:09:42;52;44;35
33948;PMS7003;20229;49.856;19.030;2023-04-24T09:14:56;54;45;37
33948;PMS7003;20229;49.856;19.030;2023-04-24T09:20:10;53;45;37
33948;PMS7003;20229;49.856;19.030;2023-04-24T09:32:58;65;53;51
33948;PMS7003;20229;49.856;19.030;2023-04-24T09:38:16;65;56;53
33948;PMS7003;20229;49.856;19.030;2023-04-24T09:43:32;70;62;59
33948;PMS7003;20229;49.856;19.030;2023-04-24T09:48:46;75;68;64
33948;PMS7003;20229;49.856;19.030;2023-04-24T09:54:00;87;85;83
33948;PMS7003;20229;49.856;19.030;2023-04-24T09:59:14;83;81;78
33948;PMS7003;20229;49.856;19.030;2023-04-24T10:04:29;86;83;79
33948;PMS7003;20229;49.856;19.030;2023-04-24T10:09:43;71;64;61
33948;PMS7003;20229;49.856;19.030;2023-04-24T10:14:57;69;59;57
33948;PMS7003;20229;49.856;19.030;2023-04-24T10:20:12;68;61;57
33948;PMS7003;20229;49.856;19.030;2023-04-24T10:25:27;77;73;68
33948;PMS7003;20229;49.856;19.030;2023-04-24T10:30:43;77;75;72
33948;PMS7003;20229;49.856;19.030;2023-04-24T10:35:58;76;74;70
33948;PMS7003;20229;49.856;19.030;2023-04-24T10:41:13;72;66;63
33948;PMS7003;20229;49.856;19.030;2023-04-24T10:46:37;74;67;65
33948;PMS7003;20229;49.856;19.030;2023-04-24T10:51:53;71;64;60
33948;PMS7003;20229;49.856;19.030;2023-04-24T11:02:38;140;138;124
33948;PMS7003;20229;49.856;19.030;2023-04-24T11:13:25;100;98;96
33948;PMS7003;20229;49.856;19.030;2023-04-24T11:18:43;100;98;94
33948;PMS7003;20229;49.856;19.030;2023-04-24T11:34:59;101;100;97
33948;PMS7003;20229;49.856;19.030;2023-04-24T11:40:15;113;112;109
33948;PMS7003;20229;49.856;19.030;2023-04-24T11:45:30;113;112;109
33948;PMS7003;20229;49.856;19.030;2023-04-24T11:50:46;116;113;110
33948;PMS7003;20229;49.856;19.030;2023-04-24T11:56:03;100;98;94
33948;PMS7003;20229;49.856;19.030;2023-04-24T12:01:17;95;91;88
33948;PMS7003;20229;49.856;19.030;2023-04-24T12:06:31;89;86;82
33948;PMS7003;20229;49.856;19.030;2023-04-24T12:17:11;88;85;81
33948;PMS7003;20229;49.856;19.030;2023-04-24T12:22:25;96;95;91
33948;PMS7003;20229;49.856;19.030;2023-04-24T12:27:40;96;96;91
33948;PMS7003;20229;49.856;19.030;2023-04-24T12:32:56;99;97;93
33948;PMS7003;20229;49.856;19.030;2023-04-24T12:38:12;96;94;90
33948;PMS7003;20229;49.856;19.030;2023-04-24T12:43:27;92;90;86
33948;PMS7003;20229;49.856;19.030;2023-04-24T12:48:41;81;70;66
33948;PMS7003;20229;49.856;19.030;2023-04-24T12:53:56;94;91;85
33948;PMS7003;20229;49.856;19.030;2023-04-24T12:59:10;91;90;85
33948;PMS7003;20229;49.856;19.030;2023-04-24T13:04:23;106;106;98
33948;PMS7003;20229;49.856;19.030;2023-04-24T13:09:38;187;185;143
33948;PMS7003;20229;49.856;19.030;2023-04-24T13:14:52;153;151;125
33948;PMS7003;20229;49.856;19.030;2023-04-24T13:20:06;82;80;76
33948;PMS7003;20229;49.856;19.030;2023-04-24T13:25:21;75;73;70
33948;PMS7003;20229;49.856;19.030;2023-04-24T13:30:38;74;68;65
33948;PMS7003;20229;49.856;19.030;2023-04-24T13:35:52;74;71;67
33948;PMS7003;20229;49.856;19.030;2023-04-24T13:41:06;68;58;53
33948;PMS7003;20229;49.856;19.030;2023-04-24T13:46:20;63;52;48
33948;PMS7003;20229;49.856;19.030;2023-04-24T13:51:34;71;61;57
33948;PMS7003;20229;49.856;19.030;2023-04-24T13:56:49;76;70;66
33948;PMS7003;20229;49.856;19.030;2023-04-24T14:02:03;75;72;68
33948;PMS7003;20229;49.856;19.030;2023-04-24T14:07:18;74;67;62
33948;PMS7003;20229;49.856;19.030;2023-04-24T14:12:31;72;65;60
33948;PMS7003;20229;49.856;19.030;2023-04-24T14:17:45;74;66;62
33948;PMS7003;20229;49.856;19.030;2023-04-24T14:22:59;71;62;58
33948;PMS7003;20229;49.856;19.030;2023-04-24T14:28:13;70;59;55
33948;PMS7003;20229;49.856;19.030;2023-04-24T14:33:26;67;56;52
33948;PMS7003;20229;49.856;19.030;2023-04-24T14:38:41;76;67;64
33948;PMS7003;20229;49.856;19.030;2023-04-24T14:43:55;67;57;53
33948;PMS7003;20229;49.856;19.030;2023-04-24T14:49:09;66;56;52
33948;PMS7003;20229;49.856;19.030;2023-04-24T14:54:24;63;53;48
33948;PMS7003;20229;49.856;19.030;2023-04-24T14:59:39;63;51;46
33948;PMS7003;20229;49.856;19.030;2023-04-24T15:04:53;61;51;47
33948;PMS7003;20229;49.856;19.030;2023-04-24T15:10:07;65;55;51
33948;PMS7003;20229;49.856;19.030;2023-04-24T15:15:22;66;55;51
33948;PMS7003;20229;49.856;19.030;2023-04-24T15:20:35;64;54;50
33948;PMS7003;20229;49.856;19.030;2023-04-24T15:25:51;69;61;57
33948;PMS7003;20229;49.856;19.030;2023-04-24T15:31:05;69;61;57
33948;PMS7003;20229;49.856;19.030;2023-04-24T15:36:19;69;62;58
33948;PMS7003;20229;49.856;19.030;2023-04-24T15:41:34;71;63;60
33948;PMS7003;20229;49.856;19.030;2023-04-24T15:46:48;73;67;63
33948;PMS7003;20229;49.856;19.030;2023-04-24T15:52:04;72;69;64
33948;PMS7003;20229;49.856;19.030;2023-04-24T15:57:18;74;70;66
33948;PMS7003;20229;49.856;19.030;2023-04-24T16:02:32;73;68;64
33948;PMS7003;20229;49.856;19.030;2023-04-24T16:07:46;72;66;60
33948;PMS7003;20229;49.856;19.030;2023-04-24T16:13:00;76;70;64
33948;PMS7003;20229;49.856;19.030;2023-04-24T16:18:16;73;65;61
33948;PMS7003;20229;49.856;19.030;2023-04-24T16:23:30;70;64;59
33948;PMS7003;20229;49.856;19.030;2023-04-24T16:28:44;72;65;61
33948;PMS7003;20229;49.856;19.030;2023-04-24T16:33:58;69;62;59
33948;PMS7003;20229;49.856;19.030;2023-04-24T16:39:12;68;57;52
33948;PMS7003;20229;49.856;19.030;2023-04-24T16:44:26;69;62;57
33948;PMS7003;20229;49.856;19.030;2023-04-24T16:49:40;64;54;49
33948;PMS7003;20229;49.856;19.030;2023-04-24T16:54:54;52;43;34
33948;PMS7003;20229;49.856;19.030;2023-04-24T17:00:09;69;59;52
33948;PMS7003;20229;49.856;19.030;2023-04-24T17:05:24;81;78;73
33948;PMS7003;20229;49.856;19.030;2023-04-24T17:10:38;77;74;69
33948;PMS7003;20229;49.856;19.030;2023-04-24T17:15:53;76;74;69
33948;PMS7003;20229;49.856;19.030;2023-04-24T17:21:08;80;75;69
33948;PMS7003;20229;49.856;19.030;2023-04-24T17:26:21;84;83;79
33948;PMS7003;20229;49.856;19.030;2023-04-24T17:31:35;79;77;72
33948;PMS7003;20229;49.856;19.030;2023-04-24T17:36:49;86;85;80
33948;PMS7003;20229;49.856;19.030;2023-04-24T17:42:04;112;110;104
33948;PMS7003;20229;49.856;19.030;2023-04-24T17:47:18;107;105;99
33948;PMS7003;20229;49.856;19.030;2023-04-24T17:52:34;112;108;102
33948;PMS7003;20229;49.856;19.030;2023-04-24T17:57:48;123;120;115
33948;PMS7003;20229;49.856;19.030;2023-04-24T18:03:03;112;108;102
33948;PMS7003;20229;49.856;19.030;2023-04-24T18:08:19;115;111;106
33948;PMS7003;20229;49.856;19.030;2023-04-24T18:13:32;112;110;105
33948;PMS7003;20229;49.856;19.030;2023-04-24T18:18:46;113;109;103
33948;PMS7003;20229;49.856;19.030;2023-04-24T18:24:00;100;97;91
33948;PMS7003;20229;49.856;19.030;2023-04-24T18:29:13;107;102;96
33948;PMS7003;20229;49.856;19.030;2023-04-24T18:34:27;97;96;89
33948;PMS7003;20229;49.856;19.030;2023-04-24T18:39:43;92;90;84
33948;PMS7003;20229;49.856;19.030;2023-04-24T18:44:56;107;105;99
33948;PMS7003;20229;49.856;19.030;2023-04-24T18:50:16;118;114;107
33948;PMS7003;20229;49.856;19.030;2023-04-24T18:55:31;150;148;140
33948;PMS7003;20229;49.856;19.030;2023-04-24T19:00:47;156;152;144
33948;PMS7003;20229;49.856;19.030;2023-04-24T19:06:01;146;139;130
33948;PMS7003;20229;49.856;19.030;2023-04-24T19:11:16;135;131;120
33948;PMS7003;20229;49.856;19.030;2023-04-24T19:16:31;115;111;100
33948;PMS7003;20229;49.856;19.030;2023-04-24T19:21:45;107;101;90
33948;PMS7003;20229;49.856;19.030;2023-04-24T19:27:01;91;88;78
33948;PMS7003;20229;49.856;19.030;2023-04-24T19:32:15;95;88;80
33948;PMS7003;20229;49.856;19.030;2023-04-24T19:37:29;79;75;67
33948;PMS7003;20229;49.856;19.030;2023-04-24T19:42:46;82;77;70
33948;PMS7003;20229;49.856;19.030;2023-04-24T19:48:02;81;76;70
33948;PMS7003;20229;49.856;19.030;2023-04-24T19:53:16;74;71;64
33948;PMS7003;20229;49.856;19.030;2023-04-24T19:58:30;76;71;65
33948;PMS7003;20229;49.856;19.030;2023-04-24T20:03:43;75;72;64
33948;PMS7003;20229;49.856;19.030;2023-04-24T20:08:58;72;69;62
33948;PMS7003;20229;49.856;19.030;2023-04-24T20:14:13;63;59;53
33948;PMS7003;20229;49.856;19.030;2023-04-24T20:19:27;75;70;63
33948;PMS7003;20229;49.856;19.030;2023-04-24T20:24:40;67;61;54
33948;PMS7003;20229;49.856;19.030;2023-04-24T20:29:55;69;65;58
33948;PMS7003;20229;49.856;19.030;2023-04-24T20:35:09;69;64;56
33948;PMS7003;20229;49.856;19.030;2023-04-24T20:40:24;65;60;54
33948;PMS7003;20229;49.856;19.030;2023-04-24T20:45:39;64;61;55
33948;PMS7003;20229;49.856;19.030;2023-04-24T20:50:54;66;61;57
33948;PMS7003;20229;49.856;19.030;2023-04-24T20:56:08;64;59;54
33948;PMS7003;20229;49.856;19.030;2023-04-24T21:01:23;65;61;53
33948;PMS7003;20229;49.856;19.030;2023-04-24T21:06:37;63;56;50
33948;PMS7003;20229;49.856;19.030;2023-04-24T21:11:50;59;53;47
33948;PMS7003;20229;49.856;19.030;2023-04-24T21:17:05;62;55;49
33948;PMS7003;20229;49.856;19.030;2023-04-24T21:22:19;60;52;46
33948;PMS7003;20229;49.856;19.030;2023-04-24T21:27:34;63;55;49
33948;PMS7003;20229;49.856;19.030;2023-04-24T21:32:50;59;52;45
33948;PMS7003;20229;49.856;19.030;2023-04-24T21:38:05;57;49;43
33948;PMS7003;20229;49.856;19.030;2023-04-24T21:43:19;56;49;43
33948;PMS7003;20229;49.856;19.030;2023-04-24T21:48:34;61;53;46
33948;PMS7003;20229;49.856;19.030;2023-04-24T21:53:47;59;48;42
33948;PMS7003;20229;49.856;19.030;2023-04-24T21:59:01;59;52;47
33948;PMS7003;20229;49.856;19.030;2023-04-24T22:04:15;60;51;46
33948;PMS7003;20229;49.856;19.030;2023-04-24T22:09:29;54;45;39
33948;PMS7003;20229;49.856;19.030;2023-04-24T22:14:42;57;47;42
33948;PMS7003;20229;49.856;19.030;2023-04-24T22:19:57;60;53;46
33948;PMS7003;20229;49.856;19.030;2023-04-24T22:25:11;57;48;44
33948;PMS7003;20229;49.856;19.030;2023-04-24T22:30:24;54;47;41
33948;PMS7003;20229;49.856;19.030;2023-04-24T22:35:38;54;45;39
33948;PMS7003;20229;49.856;19.030;2023-04-24T22:40:53;54;44;39
33948;PMS7003;20229;49.856;19.030;2023-04-24T22:46:08;53;46;41
33948;PMS7003;20229;49.856;19.030;2023-04-24T22:51:22;56;46;41
33948;PMS7003;20229;49.856;19.030;2023-04-24T22:56:36;52;43;38
33948;PMS7003;20229;49.856;19.030;2023-04-24T23:01:50;54;45;40
33948;PMS7003;20229;49.856;19.030;2023-04-24T23:07:04;59;50;45
33948;PMS7003;20229;49.856;19.030;2023-04-24T23:12:19;58;49;44
33948;PMS7003;20229;49.856;19.030;2023-04-24T23:17:33;57;48;44
33948;PMS7003;20229;49.856;19.030;2023-04-24T23:22:47;56;47;43
33948;PMS7003;20229;49.856;19.030;2023-04-24T23:28:01;52;43;37
33948;PMS7003;20229;49.856;19.030;2023-04-24T23:33:15;53;44;39
33948;PMS7003;20229;49.856;19.030;2023-04-24T23:38:29;55;44;41
33948;PMS7003;20229;49.856;19.030;2023-04-24T23:43:42;52;42;38
33948;PMS7003;20229;49.856;19.030;2023-04-24T23:48:56;53;45;41
33948;PMS7003;20229;49.856;19.030;2023-04-24T23:54:11;54;45;40
33948;PMS7003;20229;49.856;19.030;2023-04-24T23:59:25;54;45;41
